Airfield :
LOGIN :

Register | Disclaimer

   EN    FR    IT 

 










Legend :    VFR   Marginal VFR   IFR   Intensive IFR   Very Intensive IFR
Visi :
Ceiling :
>= 8 km
>= 3000ft
5 to 8 km
1000 to 3000 ft
1500m to 5 km
500 to 1000 ft
800 to 1500m
200 to 500 ft
< 800m
< 200 ft
Symbols :   Thunderstorms  Fog  Heavy snow  Heavy precipitations  Wind > 20 kt
SIGMETs :     Misc.  Thunderstorms  Icing  Turbulence  Mountain Waves  Volcanic Ashes







- Airport Elevation : 183 ft


LIBA - Amendola Foggia

CURRENT METAR :
  • 270755Z 10007KT CAVOK 30/20 Q1011 RMK SKC VIS MIN 9999 WIND THR11 09007KT WIND THR29 /////KT BLU

EXPIRED METARs :
  • 270655Z 07006KT CAVOK 29/20 Q1010 RMK SKC VIS MIN 9999 WIND THR11 08007KT WIND THR29 /////KT BLU
  • 270555Z 13004KT 9999 FEW060 25/19 Q1011 RMK FEW VIS MIN 9999 WIND THR11 15003KT WIND THR29 /////KT BLU

TAF TAF LIBA
Valid from the 27 at 06:00 until the 27 at 15:00 UTC


270500Z 2706/2715 VRB05KT 9999 FEW060
BECMG 2709/2711 11012KT
TEMPO 2711/2713 SCT040
No reported NOTAMs for that airfield.



MET'MAP, your aeronautical weather chart ! - Copyright ORBIFLY December 2007 - Disclaimer

ORBIFLY MET'MAP TEAM :

Programming & Development : Alexandra Zaïnal
Concept & Development : Baudouin d'Aumeries
Co-Development & Prog : Marc-Olivier Méhu
Technical & hardware support : Manuel Goepfert

Contact : metmap@orbifly.com




SOURCES & CREDITS :

   NOAA